Time;durP1;ratioP1;P1;durP2;ratioP2;P2;SDS_P1;SDS_P2;PMS_P1;PMS_P2;Temp;Humidity;BMP_temperature;BMP_pressure;BME280_temperature;BME280_humidity;BME280_pressure;Samples;Min_cycle;Max_cycle;Signal;HPM_P1;HPM_P2
2021/09/26 00:01:21;;;;;;;7.97;4.07;;;19.90;71.80;;;;;;5052587;28;20511;-73
2021/09/26 00:03:47;;;;;;;10.30;4.65;;;19.80;72.30;;;;;;5052682;28;20022;-73
2021/09/26 00:06:12;;;;;;;13.88;4.78;;;19.70;72.70;;;;;;5052351;28;20397;-73
2021/09/26 00:08:38;;;;;;;6.45;4.35;;;19.60;72.70;;;;;;5052685;28;20021;-73
2021/09/26 00:11:07;;;;;;;7.97;4.43;;;19.60;72.70;;;;;;5052600;28;20033;-75
2021/09/26 00:13:38;;;;;;;9.32;4.90;;;19.60;73.00;;;;;;5052323;28;20028;-75
2021/09/26 00:16:06;;;;;;;7.30;4.28;;;19.50;73.10;;;;;;5052428;28;20021;-73
2021/09/26 00:18:32;;;;;;;14.32;5.10;;;19.50;72.90;;;;;;5052401;28;20095;-73
2021/09/26 00:20:58;;;;;;;13.02;5.07;;;19.50;73.10;;;;;;5052430;28;20017;-75
2021/09/26 00:23:25;;;;;;;6.30;4.43;;;19.50;73.30;;;;;;5052588;28;20032;-73
2021/09/26 00:25:52;;;;;;;9.93;4.88;;;19.50;73.60;;;;;;5052459;28;20090;-75
2021/09/26 00:28:19;;;;;;;7.30;4.88;;;19.50;73.80;;;;;;5052513;28;20086;-74
2021/09/26 00:30:46;;;;;;;8.85;5.30;;;19.50;74.00;;;;;;5052515;28;20032;-75
2021/09/26 00:33:11;;;;;;;9.63;5.60;;;19.50;74.50;;;;;;5052553;28;20051;-75
2021/09/26 00:35:37;;;;;;;9.30;5.38;;;19.40;74.80;;;;;;5055637;28;20461;-75
2021/09/26 00:38:03;;;;;;;8.63;5.00;;;19.40;75.10;;;;;;5056318;28;20358;-75
2021/09/26 00:40:28;;;;;;;12.48;5.15;;;19.30;75.30;;;;;;5056264;28;20032;-75
2021/09/26 00:42:54;;;;;;;13.10;5.55;;;19.30;75.50;;;;;;5056193;28;20450;-74
2021/09/26 00:45:20;;;;;;;9.88;5.63;;;19.30;75.80;;;;;;5056242;28;20032;-74
2021/09/26 00:47:47;;;;;;;11.23;4.80;;;19.20;76.00;;;;;;5056044;28;20120;-74
2021/09/26 00:50:13;;;;;;;9.80;5.32;;;19.20;76.30;;;;;;5056002;28;20104;-74
2021/09/26 00:52:47;;;;;;;8.77;4.70;;;19.20;76.60;;;;;;5055992;28;20521;-74
2021/09/26 00:55:14;;;;;;;9.10;4.93;;;19.10;76.90;;;;;;5055909;28;20032;-74
2021/09/26 00:57:42;;;;;;;8.55;5.13;;;19.10;77.40;;;;;;5055923;28;20569;-74
2021/09/26 01:00:10;;;;;;;10.00;4.90;;;19.10;77.40;;;;;;5055843;28;20113;-74
2021/09/26 01:02:35;;;;;;;6.93;4.35;;;19.00;77.50;;;;;;5055983;28;20029;-74
2021/09/26 01:05:03;;;;;;;12.77;4.95;;;19.00;77.40;;;;;;5055866;28;20021;-74
2021/09/26 01:07:33;;;;;;;9.15;5.30;;;19.00;77.60;;;;;;5055666;28;20120;-74
2021/09/26 01:10:15;;;;;;;9.18;5.05;;;19.00;77.80;;;;;;5055647;28;20473;-74
2021/09/26 01:13:21;;;;;;;7.05;5.10;;;19.00;78.00;;;;;;5055725;28;20068;-74
2021/09/26 01:16:05;;;;;;;10.85;5.40;;;19.00;78.10;;;;;;5055693;28;20029;-74
2021/09/26 01:19:04;;;;;;;11.25;5.93;;;18.90;78.20;;;;;;5055572;28;20029;-74
2021/09/26 01:21:50;;;;;;;12.43;5.80;;;18.90;78.20;;;;;;5055453;28;20385;-74
2021/09/26 01:24:19;;;;;;;10.88;5.13;;;18.90;78.10;;;;;;5055496;28;20504;-74
2021/09/26 01:26:45;;;;;;;8.43;5.03;;;19.00;78.10;;;;;;5055386;28;20033;-74
2021/09/26 01:29:48;;;;;;;9.85;5.32;;;18.90;78.30;;;;;;5055337;28;20032;-74
2021/09/26 01:32:16;;;;;;;15.18;5.55;;;18.90;78.50;;;;;;5055264;28;20025;-74
2021/09/26 01:34:49;;;;;;;7.68;5.38;;;18.80;78.60;;;;;;5055176;28;20385;-74
2021/09/26 01:37:40;;;;;;;10.23;5.57;;;18.80;78.90;;;;;;5055145;28;20104;-74
2021/09/26 01:40:30;;;;;;;10.18;5.82;;;18.90;78.80;;;;;;5055102;28;20032;-74
2021/09/26 01:43:00;;;;;;;7.50;4.65;;;18.90;78.70;;;;;;5055058;28;20388;-74
2021/09/26 01:45:40;;;;;;;10.65;5.22;;;18.90;78.50;;;;;;5054787;28;20021;-74
2021/09/26 01:48:25;;;;;;;11.43;5.93;;;18.90;78.50;;;;;;5055036;28;20086;-74
2021/09/26 01:50:55;;;;;;;10.15;5.18;;;19.00;78.30;;;;;;5055037;28;20022;-75
2021/09/26 01:53:22;;;;;;;8.60;5.20;;;19.00;78.30;;;;;;5054915;28;20048;-74
2021/09/26 01:55:50;;;;;;;11.23;6.00;;;19.00;78.30;;;;;;5054905;28;20075;-74
2021/09/26 01:58:17;;;;;;;9.80;5.57;;;19.00;78.20;;;;;;5054827;28;20021;-74
2021/09/26 02:00:43;;;;;;;9.48;5.57;;;19.00;78.40;;;;;;5054600;28;20041;-74
2021/09/26 02:03:09;;;;;;;9.60;5.60;;;18.90;78.50;;;;;;5054672;28;20037;-74
2021/09/26 02:05:41;;;;;;;10.90;5.32;;;18.90;78.70;;;;;;5054771;28;20022;-75
2021/09/26 02:08:07;;;;;;;8.18;5.50;;;18.90;78.70;;;;;;5054636;28;20041;-75
2021/09/26 02:10:35;;;;;;;16.73;6.03;;;18.90;78.70;;;;;;5054460;28;20021;-74
2021/09/26 02:13:02;;;;;;;9.20;5.03;;;18.90;78.80;;;;;;5054455;28;20032;-74
2021/09/26 02:15:29;;;;;;;10.32;5.10;;;18.90;78.90;;;;;;5054407;28;20013;-74
2021/09/26 02:17:55;;;;;;;10.23;5.43;;;18.90;78.80;;;;;;5054413;28;20028;-75
2021/09/26 02:20:22;;;;;;;12.38;5.57;;;18.90;78.80;;;;;;5054322;28;20025;-74
2021/09/26 02:22:50;;;;;;;12.80;5.38;;;18.90;78.80;;;;;;5054342;28;20377;-74
2021/09/26 02:25:19;;;;;;;14.73;6.22;;;18.90;78.90;;;;;;5054273;28;20169;-74
2021/09/26 02:27:44;;;;;;;10.98;5.68;;;18.90;78.70;;;;;;5054269;28;20037;-74
2021/09/26 02:30:11;;;;;;;8.18;5.35;;;18.90;78.70;;;;;;5054103;28;20028;-74
2021/09/26 02:32:37;;;;;;;13.75;6.50;;;18.90;78.50;;;;;;5054223;28;20032;-74
2021/09/26 02:35:05;;;;;;;15.48;6.05;;;18.90;78.70;;;;;;5053950;28;20033;-74
2021/09/26 02:37:31;;;;;;;11.68;5.22;;;18.90;78.70;;;;;;5053956;28;20452;-74
2021/09/26 02:39:57;;;;;;;9.30;5.75;;;18.90;78.40;;;;;;5053917;28;20057;-74
2021/09/26 02:42:37;;;;;;;12.57;5.50;;;18.90;78.60;;;;;;5053850;28;20021;-74
2021/09/26 02:45:09;;;;;;;10.15;5.78;;;18.80;78.80;;;;;;5053847;28;20025;-74
2021/09/26 02:47:43;;;;;;;10.88;5.72;;;18.80;79.00;;;;;;5053676;28;20385;-74
2021/09/26 02:50:10;;;;;;;13.50;6.03;;;18.80;79.20;;;;;;5053803;28;20053;-74
2021/09/26 02:52:36;;;;;;;10.10;5.70;;;18.60;79.80;;;;;;5053788;28;20448;-74
2021/09/26 02:55:02;;;;;;;11.43;5.15;;;18.60;80.20;;;;;;5053599;28;20053;-74
2021/09/26 02:57:28;;;;;;;14.10;6.72;;;18.50;80.60;;;;;;5052919;28;20021;-74
2021/09/26 02:59:54;;;;;;;11.18;6.30;;;18.40;81.00;;;;;;5053581;28;20017;-74
2021/09/26 03:02:28;;;;;;;14.70;5.95;;;18.40;81.20;;;;;;5053347;28;20175;-74
2021/09/26 03:04:54;;;;;;;12.55;6.28;;;18.30;81.60;;;;;;5053403;28;20051;-75
2021/09/26 03:07:19;;;;;;;9.48;5.70;;;18.30;81.70;;;;;;5053432;28;20040;-74
2021/09/26 03:09:45;;;;;;;16.52;6.55;;;18.20;81.90;;;;;;5053470;28;20021;-74
2021/09/26 03:12:19;;;;;;;8.93;5.95;;;18.20;81.90;;;;;;5053247;28;20028;-74
2021/09/26 03:14:45;;;;;;;9.32;5.85;;;18.20;82.10;;;;;;5053162;28;20469;-74
2021/09/26 03:17:10;;;;;;;14.15;6.88;;;18.20;82.10;;;;;;5053245;28;20035;-74
2021/09/26 03:19:36;;;;;;;11.00;6.13;;;18.20;82.00;;;;;;5053202;28;20021;-73
2021/09/26 03:22:03;;;;;;;11.57;6.00;;;18.20;82.00;;;;;;5053096;28;20481;-73
2021/09/26 03:24:30;;;;;;;11.55;5.30;;;18.20;82.00;;;;;;5053232;28;20056;-74
2021/09/26 03:26:56;;;;;;;12.45;6.30;;;18.10;82.20;;;;;;5053340;28;20036;-74
2021/09/26 03:29:22;;;;;;;12.48;5.35;;;18.10;82.40;;;;;;5053174;28;20049;-74
2021/09/26 03:31:47;;;;;;;10.05;6.07;;;18.10;82.60;;;;;;5052945;28;20028;-73
2021/09/26 03:34:13;;;;;;;14.25;6.47;;;18.10;82.70;;;;;;5052998;28;20029;-73
2021/09/26 03:36:39;;;;;;;11.35;6.25;;;18.00;82.60;;;;;;5052982;28;20028;-73
2021/09/26 03:39:04;;;;;;;10.95;6.35;;;18.00;82.90;;;;;;5052989;28;20032;-73
2021/09/26 03:41:30;;;;;;;12.02;6.00;;;17.90;83.40;;;;;;5052982;28;20036;-74
2021/09/26 03:43:55;;;;;;;13.32;6.28;;;17.80;83.80;;;;;;5053099;28;20132;-73
2021/09/26 03:46:21;;;;;;;13.02;5.88;;;17.80;83.80;;;;;;5052870;28;20470;-73
2021/09/26 03:48:46;;;;;;;7.45;6.03;;;17.80;83.90;;;;;;5034966;28;20108;-74
2021/09/26 03:51:12;;;;;;;10.90;6.82;;;17.70;84.30;;;;;;5052701;28;20028;-73
2021/09/26 03:53:38;;;;;;;17.77;6.50;;;17.70;84.40;;;;;;5052765;28;20070;-74
2021/09/26 03:56:04;;;;;;;11.55;5.88;;;17.70;84.50;;;;;;5052581;28;20106;-74
2021/09/26 03:58:30;;;;;;;16.67;6.28;;;17.60;84.50;;;;;;5052649;28;20048;-74
2021/09/26 04:00:55;;;;;;;11.07;6.40;;;17.60;84.30;;;;;;5051818;28;20053;-74
2021/09/26 04:03:21;;;;;;;14.73;5.97;;;17.60;84.60;;;;;;5052812;28;20066;-73
2021/09/26 04:05:46;;;;;;;16.00;6.53;;;17.60;84.60;;;;;;5052592;28;20021;-73
2021/09/26 04:08:13;;;;;;;8.70;5.63;;;17.60;84.60;;;;;;5053640;28;20508;-73
2021/09/26 04:10:39;;;;;;;12.80;6.82;;;17.60;84.70;;;;;;5056754;28;20096;-73
2021/09/26 04:13:05;;;;;;;11.20;5.70;;;17.50;84.70;;;;;;5056706;28;20060;-73
2021/09/26 04:15:30;;;;;;;9.65;6.25;;;17.50;84.50;;;;;;5056671;28;20044;-74
2021/09/26 04:17:56;;;;;;;10.52;5.72;;;17.50;84.50;;;;;;5056593;28;20508;-73
2021/09/26 04:20:21;;;;;;;9.20;5.25;;;17.50;84.50;;;;;;5056652;28;20461;-73
2021/09/26 04:22:47;;;;;;;10.40;6.43;;;17.50;84.50;;;;;;5038633;28;20017;-73
2021/09/26 04:25:13;;;;;;;9.63;5.75;;;17.40;85.30;;;;;;5056531;28;20039;-73
2021/09/26 04:27:38;;;;;;;10.25;6.22;;;17.40;84.70;;;;;;5056406;28;20045;-73
2021/09/26 04:30:06;;;;;;;8.80;5.75;;;17.40;84.80;;;;;;5056457;28;20090;-73
2021/09/26 04:32:31;;;;;;;10.02;5.93;;;17.40;84.50;;;;;;5057754;28;20051;-73
2021/09/26 04:34:57;;;;;;;10.40;5.43;;;17.40;84.50;;;;;;5061513;28;20025;-73
2021/09/26 04:37:22;;;;;;;11.75;5.80;;;17.30;84.50;;;;;;5060703;28;20088;-73
2021/09/26 04:39:48;;;;;;;9.32;5.35;;;17.20;84.50;;;;;;5058784;28;20020;-74
2021/09/26 04:42:14;;;;;;;10.32;6.55;;;17.20;84.60;;;;;;5056360;28;20036;-75
2021/09/26 04:44:39;;;;;;;10.90;6.38;;;17.10;85.10;;;;;;5056151;28;20028;-75
2021/09/26 04:47:05;;;;;;;9.40;6.18;;;17.00;85.50;;;;;;5056133;28;20458;-75
2021/09/26 04:49:31;;;;;;;19.05;7.03;;;16.90;86.20;;;;;;5056040;28;20530;-72
2021/09/26 04:51:57;;;;;;;11.70;6.80;;;16.80;86.50;;;;;;5056181;28;20025;-73
2021/09/26 04:54:23;;;;;;;9.80;6.53;;;16.70;86.60;;;;;;5056063;28;20032;-73
2021/09/26 04:56:50;;;;;;;11.35;6.00;;;16.70;86.60;;;;;;5056133;28;20017;-75
2021/09/26 04:59:17;;;;;;;11.38;6.40;;;16.70;86.70;;;;;;5055966;28;20032;-73
2021/09/26 05:01:42;;;;;;;13.65;6.25;;;16.70;86.90;;;;;;5055802;28;20053;-74
2021/09/26 05:04:08;;;;;;;12.15;7.25;;;16.60;86.70;;;;;;5055894;28;20035;-73
2021/09/26 05:06:33;;;;;;;17.55;6.50;;;16.60;86.90;;;;;;5055801;28;20032;-74
2021/09/26 05:08:59;;;;;;;9.82;6.13;;;16.50;87.00;;;;;;5055752;28;20032;-74
2021/09/26 05:11:24;;;;;;;11.45;6.38;;;16.50;87.20;;;;;;5055758;28;20028;-74
2021/09/26 05:13:50;;;;;;;12.02;6.90;;;16.50;87.50;;;;;;5055753;28;20036;-74
2021/09/26 05:16:16;;;;;;;11.52;6.63;;;16.40;87.60;;;;;;5055728;28;20033;-74
2021/09/26 05:18:42;;;;;;;13.15;6.35;;;16.40;87.50;;;;;;5054675;28;20377;-74
2021/09/26 05:21:07;;;;;;;15.23;7.40;;;16.30;87.80;;;;;;5054881;28;20025;-73
2021/09/26 05:23:34;;;;;;;12.95;6.88;;;16.30;87.90;;;;;;5055516;28;20027;-73
2021/09/26 05:26:00;;;;;;;13.45;6.90;;;16.30;88.10;;;;;;5055347;28;20237;-73
2021/09/26 05:28:26;;;;;;;12.15;6.72;;;16.30;88.20;;;;;;5055469;28;20466;-73
2021/09/26 05:30:51;;;;;;;16.85;7.57;;;16.30;88.20;;;;;;5055642;28;20040;-73
2021/09/26 05:33:17;;;;;;;14.00;7.00;;;16.30;88.10;;;;;;5055436;28;20025;-74
2021/09/26 05:35:43;;;;;;;10.43;6.85;;;16.30;88.20;;;;;;5055406;28;20502;-72
2021/09/26 05:38:08;;;;;;;14.82;7.22;;;16.30;88.00;;;;;;5055226;28;20071;-73
2021/09/26 05:40:34;;;;;;;15.60;7.50;;;16.20;88.00;;;;;;5055286;28;20029;-72
2021/09/26 05:42:59;;;;;;;13.52;7.13;;;16.20;88.00;;;;;;5055417;28;20032;-73
2021/09/26 05:45:25;;;;;;;11.68;6.75;;;16.10;88.30;;;;;;5055176;28;20029;-73
2021/09/26 05:47:50;;;;;;;14.25;7.60;;;16.20;88.10;;;;;;5055033;28;20043;-72
2021/09/26 05:50:16;;;;;;;11.30;8.00;;;16.20;88.20;;;;;;5055080;28;20103;-72
2021/09/26 05:52:41;;;;;;;12.60;6.95;;;16.20;88.10;;;;;;5055005;28;20370;-72
2021/09/26 05:55:08;;;;;;;16.60;6.80;;;16.30;87.90;;;;;;5053621;28;20024;-72
2021/09/26 05:57:33;;;;;;;16.83;6.93;;;16.30;87.80;;;;;;5054864;28;20047;-73
2021/09/26 06:00:02;;;;;;;12.57;6.57;;;16.30;88.10;;;;;;5054495;28;20528;-72
2021/09/26 06:02:28;;;;;;;10.93;6.65;;;16.40;88.00;;;;;;5054833;28;20036;-73
2021/09/26 06:04:54;;;;;;;11.85;6.88;;;16.50;87.70;;;;;;5054859;28;20025;-72
2021/09/26 06:07:19;;;;;;;10.95;6.72;;;16.60;87.10;;;;;;5053358;28;20070;-73
2021/09/26 06:09:45;;;;;;;12.57;7.35;;;16.60;86.30;;;;;;5054563;28;20078;-72
2021/09/26 06:12:11;;;;;;;10.45;6.53;;;16.60;86.20;;;;;;5054610;28;20029;-72
2021/09/26 06:14:38;;;;;;;9.95;6.20;;;16.60;86.10;;;;;;5054655;28;20020;-74
2021/09/26 06:17:04;;;;;;;10.70;6.70;;;16.60;86.00;;;;;;5054485;28;20032;-73
2021/09/26 06:19:29;;;;;;;16.00;6.95;;;16.60;85.90;;;;;;5054424;28;20036;-73
2021/09/26 06:21:55;;;;;;;8.55;6.03;;;16.80;86.00;;;;;;5054453;28;20087;-73
2021/09/26 06:24:20;;;;;;;9.40;5.93;;;16.80;86.80;;;;;;5054476;28;20536;-74
2021/09/26 06:26:46;;;;;;;8.48;6.07;;;17.00;85.60;;;;;;5054302;28;20110;-74
2021/09/26 06:29:12;;;;;;;10.10;6.30;;;17.10;85.00;;;;;;5054202;28;20021;-73
2021/09/26 06:31:38;;;;;;;8.52;6.28;;;17.10;84.40;;;;;;5053300;28;20107;-73
2021/09/26 06:34:04;;;;;;;12.50;6.10;;;17.10;84.20;;;;;;5054071;28;20024;-74
2021/09/26 06:36:30;;;;;;;9.82;6.25;;;17.20;84.00;;;;;;5036428;28;20148;-74
2021/09/26 06:38:55;;;;;;;12.75;5.82;;;17.20;83.90;;;;;;5054030;28;20023;-74
2021/09/26 06:41:22;;;;;;;12.93;6.05;;;17.30;83.70;;;;;;5054014;28;20025;-75
2021/09/26 06:43:48;;;;;;;8.90;5.95;;;17.20;83.90;;;;;;5054098;28;20520;-76
2021/09/26 06:46:14;;;;;;;9.85;6.10;;;17.30;83.70;;;;;;5053610;28;20493;-73
2021/09/26 06:48:39;;;;;;;12.55;6.32;;;17.40;83.50;;;;;;5053892;28;20072;-74
2021/09/26 06:51:05;;;;;;;8.13;5.88;;;17.40;83.20;;;;;;5053825;28;20053;-74
2021/09/26 06:53:37;;;;;;;;;;;17.60;83.00;;;;;;5091046;28;20397;-75
2021/09/26 06:56:03;;;;;;;9.63;5.88;;;17.70;82.60;;;;;;5090471;28;20315;-75
2021/09/26 06:58:28;;;;;;;11.18;6.05;;;17.90;83.00;;;;;;5090444;28;20024;-74
2021/09/26 07:00:54;;;;;;;11.63;5.93;;;18.00;81.50;;;;;;5090535;28;20372;-74
2021/09/26 07:03:20;;;;;;;10.40;5.53;;;18.10;81.00;;;;;;5089251;28;20477;-74
2021/09/26 07:05:45;;;;;;;9.50;5.75;;;18.10;80.90;;;;;;5089017;28;20086;-75
2021/09/26 07:08:11;;;;;;;12.77;6.25;;;18.20;80.50;;;;;;5090336;28;20051;-74
2021/09/26 07:10:37;;;;;;;7.57;5.80;;;18.20;80.50;;;;;;5090276;28;20035;-75
2021/09/26 07:13:03;;;;;;;10.15;5.55;;;18.10;80.70;;;;;;5090122;28;20089;-74
2021/09/26 07:15:28;;;;;;;9.10;6.32;;;18.10;81.20;;;;;;5090167;28;20025;-74
2021/09/26 07:17:57;;;;;;;13.35;5.78;;;18.00;81.60;;;;;;5090185;28;20051;-74
2021/09/26 07:20:23;;;;;;;8.88;5.07;;;18.00;81.90;;;;;;5088733;28;20020;-73
2021/09/26 07:22:49;;;;;;;8.45;6.07;;;18.00;82.10;;;;;;5089999;28;20369;-72
2021/09/26 07:25:14;;;;;;;9.50;5.68;;;18.00;82.10;;;;;;5089992;28;20031;-73
2021/09/26 07:27:40;;;;;;;13.25;6.00;;;18.00;83.00;;;;;;5090004;28;20035;-72
2021/09/26 07:30:06;;;;;;;17.98;11.48;;;18.00;82.10;;;;;;5089948;28;20184;-72
2021/09/26 07:32:32;;;;;;;30.42;21.15;;;18.10;82.40;;;;;;5092241;28;20032;-73
2021/09/26 07:34:58;;;;;;;16.67;7.50;;;18.20;82.60;;;;;;5091662;28;20012;-73
2021/09/26 07:37:24;;;;;;;11.10;5.97;;;18.20;83.10;;;;;;5089864;28;20028;-72
2021/09/26 07:39:49;;;;;;;10.38;5.93;;;18.20;83.40;;;;;;5090454;28;20031;-72
2021/09/26 07:42:15;;;;;;;15.40;6.15;;;18.20;83.30;;;;;;5089595;28;20024;-71
2021/09/26 07:44:41;;;;;;;9.05;6.35;;;18.30;83.60;;;;;;5090677;28;20053;-73
2021/09/26 07:47:06;;;;;;;9.75;6.22;;;18.20;83.80;;;;;;5089956;28;20048;-72
2021/09/26 07:49:34;;;;;;;9.15;6.18;;;18.30;84.10;;;;;;5089501;28;20055;-72
2021/09/26 07:51:59;;;;;;;9.77;6.03;;;18.30;84.10;;;;;;5089198;28;20044;-72
2021/09/26 07:54:25;;;;;;;14.80;7.18;;;18.30;84.60;;;;;;5089486;28;20379;-72
2021/09/26 07:56:51;;;;;;;12.30;8.75;;;18.30;84.90;;;;;;5089423;28;20549;-72
2021/09/26 07:59:19;;;;;;;16.88;9.05;;;18.10;86.40;;;;;;5089045;28;20032;-72
2021/09/26 08:01:45;;;;;;;14.73;8.77;;;18.10;87.10;;;;;;5089319;28;20480;-73
2021/09/26 08:04:10;;;;;;;15.00;8.93;;;18.10;87.10;;;;;;5080378;28;20035;-74
2021/09/26 08:06:36;;;;;;;14.35;10.02;;;18.10;85.50;;;;;;5075628;28;20021;-74
2021/09/26 08:09:03;;;;;;;16.45;10.13;;;18.00;84.70;;;;;;5075526;28;20024;-72
2021/09/26 08:11:28;;;;;;;14.95;10.18;;;18.10;83.70;;;;;;5074506;28;20433;-74
2021/09/26 08:13:54;;;;;;;12.98;8.82;;;18.00;83.20;;;;;;5075616;28;20099;-73
2021/09/26 08:16:20;;;;;;;15.23;8.73;;;18.00;83.00;;;;;;5075472;28;20112;-74
2021/09/26 08:18:45;;;;;;;11.68;8.63;;;18.00;83.80;;;;;;5075177;28;20362;-73
2021/09/26 08:21:11;;;;;;;12.57;8.95;;;17.90;83.40;;;;;;5075443;28;20024;-74
2021/09/26 08:23:37;;;;;;;15.43;8.85;;;17.90;84.10;;;;;;5075253;28;20021;-74
2021/09/26 08:26:03;;;;;;;11.27;8.40;;;17.90;83.50;;;;;;5075305;28;20078;-73
2021/09/26 08:28:29;;;;;;;16.08;9.55;;;17.90;82.60;;;;;;5075347;28;20488;-74
2021/09/26 08:30:54;;;;;;;13.05;9.88;;;17.70;80.60;;;;;;5075214;28;20032;-73
2021/09/26 08:33:20;;;;;;;19.88;9.48;;;17.70;80.80;;;;;;5075092;28;20040;-75
2021/09/26 08:35:46;;;;;;;13.25;10.07;;;17.70;81.40;;;;;;5075101;28;20027;-75
2021/09/26 08:38:11;;;;;;;14.07;8.38;;;17.80;81.10;;;;;;5075007;28;20028;-77
2021/09/26 08:40:37;;;;;;;75.75;51.30;;;17.80;80.40;;;;;;5075018;28;20067;-74
2021/09/26 08:43:03;;;;;;;14.52;10.32;;;17.80;81.10;;;;;;5074927;28;20481;-75
2021/09/26 08:45:29;;;;;;;12.90;9.90;;;17.90;80.90;;;;;;5074958;28;20495;-77
2021/09/26 08:47:56;;;;;;;13.35;9.93;;;17.80;81.80;;;;;;5074887;28;20052;-75
2021/09/26 08:50:25;;;;;;;11.43;8.82;;;17.90;82.10;;;;;;5074835;28;20021;-76
2021/09/26 08:52:52;;;;;;;12.00;9.75;;;17.90;81.50;;;;;;5074618;28;20049;-76
2021/09/26 08:55:18;;;;;;;12.63;9.55;;;18.00;81.10;;;;;;5074757;28;20067;-75
2021/09/26 08:57:44;;;;;;;15.25;11.73;;;18.10;81.50;;;;;;5074780;28;20471;-74
2021/09/26 09:00:13;;;;;;;25.75;15.15;;;18.30;81.80;;;;;;5074618;28;20024;-75
2021/09/26 09:02:38;;;;;;;18.20;13.98;;;18.40;82.00;;;;;;5074615;28;20025;-75
2021/09/26 09:05:06;;;;;;;21.10;14.75;;;18.50;82.00;;;;;;5074495;28;20406;-73
2021/09/26 09:07:31;;;;;;;18.55;15.10;;;18.60;82.00;;;;;;5074569;28;20031;-73
2021/09/26 09:09:59;;;;;;;20.58;14.35;;;18.50;82.50;;;;;;5074481;28;20021;-73
2021/09/26 09:12:36;;;;;;;18.73;15.65;;;18.40;83.20;;;;;;5074205;28;20089;-73
2021/09/26 09:15:13;;;;;;;18.88;14.05;;;18.30;83.90;;;;;;5072203;28;20488;-72
2021/09/26 09:17:40;;;;;;;14.80;11.25;;;18.30;84.60;;;;;;5072937;28;20145;-73
2021/09/26 09:20:20;;;;;;;16.20;10.63;;;18.10;85.30;;;;;;5074174;28;20052;-72
2021/09/26 09:22:48;;;;;;;14.60;11.10;;;18.00;86.00;;;;;;5074158;28;20021;-74
2021/09/26 09:25:31;;;;;;;15.07;10.82;;;17.90;86.50;;;;;;5074012;28;20131;-73
2021/09/26 09:27:56;;;;;;;15.60;10.35;;;17.70;87.10;;;;;;5074041;28;20357;-71
2021/09/26 09:31:02;;;;;;;11.70;9.85;;;17.70;87.30;;;;;;5073762;28;20113;-73
2021/09/26 09:33:45;;;;;;;14.70;11.60;;;17.70;87.60;;;;;;5069076;28;20044;-75
2021/09/26 09:36:26;;;;;;;14.73;11.30;;;17.80;88.30;;;;;;5073865;28;20025;-72
2021/09/26 09:38:57;;;;;;;14.10;11.43;;;17.80;88.10;;;;;;5073749;28;20021;-74
2021/09/26 09:41:36;;;;;;;12.82;10.45;;;17.90;88.00;;;;;;5073938;28;20036;-74
2021/09/26 09:44:03;;;;;;;13.00;10.45;;;17.90;87.80;;;;;;5073724;28;20016;-73
2021/09/26 09:46:38;;;;;;;17.05;12.50;;;18.00;87.80;;;;;;5073716;28;20048;-74
2021/09/26 09:49:22;;;;;;;13.05;10.65;;;18.00;88.00;;;;;;5073629;28;20067;-74
2021/09/26 09:51:47;;;;;;;13.85;11.23;;;17.90;87.40;;;;;;5073650;28;20148;-74
2021/09/26 09:54:13;;;;;;;12.98;8.82;;;17.80;87.40;;;;;;5073628;28;20489;-74
2021/09/26 09:56:44;;;;;;;7.10;6.40;;;17.80;86.40;;;;;;5073471;28;20089;-74
2021/09/26 09:59:11;;;;;;;6.93;6.20;;;17.60;84.00;;;;;;5073492;28;20491;-74
2021/09/26 10:01:39;;;;;;;8.45;6.50;;;17.70;83.70;;;;;;5072108;28;20123;-74
2021/09/26 10:04:09;;;;;;;9.48;6.50;;;17.50;83.70;;;;;;5073918;28;20093;-74
2021/09/26 10:06:40;;;;;;;8.27;5.65;;;17.40;83.30;;;;;;5073423;28;20028;-74
2021/09/26 10:09:20;;;;;;;9.07;5.68;;;17.40;82.20;;;;;;5077224;28;20016;-74
2021/09/26 10:11:54;;;;;;;8.38;6.57;;;17.50;82.30;;;;;;5072556;28;20037;-73
2021/09/26 10:14:23;;;;;;;8.38;6.85;;;17.60;83.50;;;;;;5071283;28;20491;-73
2021/09/26 10:16:49;;;;;;;8.85;7.53;;;17.60;83.40;;;;;;5072685;28;20528;-72
2021/09/26 10:19:20;;;;;;;7.85;7.07;;;17.70;83.90;;;;;;5073392;28;20060;-73
2021/09/26 10:21:46;;;;;;;12.25;8.52;;;17.80;83.90;;;;;;5073550;28;20073;-72
2021/09/26 10:24:12;;;;;;;8.90;7.10;;;17.80;85.00;;;;;;5073323;28;20516;-73
2021/09/26 10:26:38;;;;;;;8.15;6.75;;;17.90;84.00;;;;;;5071755;28;20052;-73
2021/09/26 10:29:06;;;;;;;7.40;6.18;;;17.90;82.60;;;;;;5073295;28;20074;-74
2021/09/26 10:31:33;;;;;;;8.50;6.80;;;18.00;81.60;;;;;;5073070;28;20480;-73
2021/09/26 10:34:01;;;;;;;7.65;6.85;;;18.10;81.70;;;;;;5071828;28;20381;-76
2021/09/26 10:36:28;;;;;;;9.30;7.13;;;18.10;82.70;;;;;;5073122;28;20017;-73
2021/09/26 10:38:55;;;;;;;10.77;7.22;;;18.10;82.60;;;;;;5073113;28;20024;-76
2021/09/26 10:41:21;;;;;;;7.25;6.43;;;18.20;82.80;;;;;;5073091;28;20447;-74
2021/09/26 10:43:47;;;;;;;8.48;5.90;;;18.10;82.50;;;;;;5073049;28;20293;-73
2021/09/26 10:46:23;;;;;;;8.80;6.93;;;18.20;81.70;;;;;;5072966;28;20021;-75
2021/09/26 10:49:06;;;;;;;7.05;6.10;;;18.30;82.50;;;;;;5073050;28;20036;-74
2021/09/26 10:51:49;;;;;;;22.08;15.68;;;18.40;82.80;;;;;;5072668;28;20497;-74
2021/09/26 10:54:33;;;;;;;25.75;19.40;;;18.50;83.00;;;;;;5073068;28;20028;-75
2021/09/26 10:57:04;;;;;;;10.95;8.40;;;18.70;83.10;;;;;;5072968;28;20027;-76
2021/09/26 10:59:43;;;;;;;9.45;7.82;;;18.80;83.00;;;;;;5071759;28;20052;-74
2021/09/26 11:02:25;;;;;;;8.00;7.20;;;18.90;83.00;;;;;;5072877;28;20029;-75
2021/09/26 11:04:56;;;;;;;8.10;7.22;;;19.00;82.90;;;;;;5072935;28;20035;-73
2021/09/26 11:07:27;;;;;;;11.63;7.35;;;19.10;82.80;;;;;;5072847;28;20103;-74
2021/09/26 11:09:57;;;;;;;9.05;5.70;;;19.20;82.30;;;;;;5072746;28;20107;-74
2021/09/26 11:12:46;;;;;;;7.45;6.13;;;19.40;81.00;;;;;;5072123;28;20035;-74
2021/09/26 11:15:24;;;;;;;6.53;5.80;;;19.50;80.20;;;;;;5071135;28;20503;-73
2021/09/26 11:18:00;;;;;;;5.90;5.30;;;19.80;78.90;;;;;;5070814;28;20468;-75
2021/09/26 11:20:25;;;;;;;6.47;5.25;;;19.90;75.30;;;;;;5070269;28;20027;-72
2021/09/26 11:23:06;;;;;;;6.35;5.32;;;20.00;75.90;;;;;;5072726;28;20025;-75
2021/09/26 11:25:56;;;;;;;7.38;5.00;;;20.20;75.20;;;;;;5072911;28;20025;-76
2021/09/26 11:28:26;;;;;;;6.40;5.05;;;20.30;74.10;;;;;;5072608;28;20028;-73
2021/09/26 11:30:53;;;;;;;7.57;5.15;;;20.50;72.80;;;;;;5072520;28;20017;-73
2021/09/26 11:33:19;;;;;;;6.38;5.78;;;20.70;72.30;;;;;;5072730;28;20036;-74
2021/09/26 11:35:45;;;;;;;7.72;5.82;;;21.00;71.90;;;;;;5071357;28;20012;-73
2021/09/26 11:38:14;;;;;;;6.40;5.15;;;21.20;71.40;;;;;;5072605;28;20025;-72
2021/09/26 11:40:49;;;;;;;9.75;5.53;;;21.50;70.40;;;;;;5076341;28;20040;-73
2021/09/26 11:43:20;;;;;;;6.32;5.32;;;21.70;69.60;;;;;;5076139;28;20032;-73
2021/09/26 11:45:46;;;;;;;7.57;4.68;;;21.90;68.60;;;;;;5076307;28;20029;-74
2021/09/26 11:48:12;;;;;;;5.00;4.38;;;21.90;65.50;;;;;;5076008;28;20362;-75
2021/09/26 11:50:41;;;;;;;5.38;4.50;;;21.90;64.50;;;;;;5075997;28;20078;-74
2021/09/26 11:53:08;;;;;;;5.57;4.32;;;22.00;63.90;;;;;;5075767;28;20128;-74
2021/09/26 11:55:36;;;;;;;8.05;4.82;;;22.00;62.80;;;;;;5075833;28;20077;-75
2021/09/26 11:58:04;;;;;;;4.97;4.50;;;21.80;63.50;;;;;;5075719;28;20028;-74
2021/09/26 12:00:34;;;;;;;7.72;5.30;;;22.10;64.80;;;;;;5075908;28;20049;-74
2021/09/26 12:03:19;;;;;;;7.82;4.53;;;22.20;65.60;;;;;;5074577;28;20035;-73
2021/09/26 12:05:45;;;;;;;6.22;4.32;;;22.30;62.30;;;;;;5075868;28;20107;-74
2021/09/26 12:08:11;;;;;;;5.88;4.18;;;22.50;60.60;;;;;;5075762;28;20028;-74
2021/09/26 12:10:37;;;;;;;6.20;4.40;;;22.70;58.30;;;;;;5075724;28;20032;-74
2021/09/26 12:13:21;;;;;;;4.57;3.95;;;22.90;60.40;;;;;;5075576;28;20047;-73
2021/09/26 12:15:49;;;;;;;4.90;4.25;;;22.70;59.40;;;;;;5075563;28;20126;-74
2021/09/26 12:18:25;;;;;;;4.68;4.28;;;22.40;60.30;;;;;;5075501;28;20024;-76
2021/09/26 12:21:06;;;;;;;5.10;4.60;;;22.10;62.40;;;;;;5075513;28;20025;-72
2021/09/26 12:23:55;;;;;;;5.50;4.47;;;22.10;62.90;;;;;;5075510;28;20016;-73
2021/09/26 12:26:32;;;;;;;6.57;4.93;;;22.10;63.50;;;;;;5075309;28;20417;-74
2021/09/26 12:29:33;;;;;;;5.40;4.85;;;22.20;61.00;;;;;;5075388;28;20099;-74
2021/09/26 12:32:10;;;;;;;8.45;5.60;;;22.00;63.50;;;;;;5073966;28;20032;-75
2021/09/26 12:34:45;;;;;;;9.15;6.68;;;21.60;63.80;;;;;;5075291;28;20024;-75
2021/09/26 12:37:23;;;;;;;5.95;4.80;;;21.40;65.60;;;;;;5075099;28;20511;-74
2021/09/26 12:39:51;;;;;;;4.60;4.07;;;21.20;65.80;;;;;;5075242;28;20107;-73
2021/09/26 12:42:36;;;;;;;6.05;5.13;;;21.10;65.80;;;;;;5075272;28;20473;-74
2021/09/26 12:45:20;;;;;;;5.55;5.05;;;21.00;66.70;;;;;;5075029;28;20112;-75
2021/09/26 12:47:46;;;;;;;7.97;5.55;;;21.00;67.80;;;;;;5074781;28;20044;-74
2021/09/26 12:50:13;;;;;;;5.95;4.68;;;21.00;67.00;;;;;;5074769;28;20418;-74